x

South Brooks (46132) Wave Buoy

6:00 - Sat 1st Oct 2016 All times are PDT. -7 hours from GMT.

  • Sig Wave height 3.6ft
  • Peak Period 9s
  • Wind
    11mph, 13mph gusts
  • Sea Temp 54°f
  • Aire Temp 53°f
  • Sea Pressure 1010.8mb
  • South Brooks
  • South Brooks

More Historic Weather Station data

Upgrade to MSW Pro to gain access to the past 30 days of data for over 8000 Wavebouys and Weather Stations around the globe.

Join Pro

Comparision Forecast

View Surf forecast
   
sáb 10/01 6:00 3.5ft 9s 11 13 mph 1010.8mb 54f 53f
5:00 3.5ft 9s 16 20 mph 1010.9mb 54f 53f
4:00 3.5ft 9s 13 16 mph 1011.2mb 54f 53f
3:00 3.5ft 8s 13 18 mph 1011.4mb 54f 52f
2:00 4.5ft 9s 9 11 mph 1011.9mb 54f 53f
1:00 4.5ft 9s 7 9 mph 1012.4mb 54f 53f
12:00 4.5ft 9s 7 9 mph 1012.7mb 54f 53f
vie 09/30 11:00 4.5ft 8s 9 11 mph 1013.1mb 55f 53f
10:00 4ft 9s 2 4 mph 1013.5mb 54f 54f
9:00 4.5ft 9s 2 4 mph 1013.8mb 54f 54f
8:00 4.5ft 9s 2 4 mph 1014.1mb 55f 54f
7:00 4ft 10s 2 4 mph 1014.4mb 55f 54f
6:00 4ft 10s 2
mph
1014.5mb 56f 56f
5:00 3.5ft 10s  -  2 mph 1014.9mb 55f 56f
3:00 4ft 10s  -  2 mph 1015.7mb 55f 55f
2:00 4ft 10s 4
mph
1016mb 55f 54f
1:00 4ft 10s 2 4 mph 1016.5mb 55f 53f
12:00 4ft 11s 4 7 mph 1016.7mb 54f 53f
11:00 3.5ft 10s 2 7 mph 1016.8mb 54f 54f
10:00 4ft 11s 2 4 mph 1017mb 54f 54f
9:00 4ft 9s 4
mph
1017mb 54f 55f
8:00 4.5ft 10s 11
mph
1017mb 54f 54f
7:00 4.5ft 9s 7 9 mph 1017.1mb 54f 54f
6:00 4ft 10s 11 13 mph 1017.1mb 54f 54f
5:00 3.5ft 10s 11 13 mph 1017.1mb 54f 54f
4:00 4ft 10s 9 13 mph 1017.2mb 54f 54f
3:00 4ft 10s 4 7 mph 1017.5mb 54f 54f
2:00 3.5ft 10s 7
mph
1017.4mb 54f 55f
1:00 4.5ft 11s 9
mph
1017.4mb 54f 55f
12:00 4.5ft 11s 9
mph
1017.7mb 54f 55f
jue 09/29 11:00 4.5ft 11s 9
mph
1018.1mb 54f 55f
10:00 4ft 10s 7 9 mph 1018.5mb 54f 55f
9:00 4.5ft 11s 7
mph
1018.8mb 54f 55f
8:00 4.5ft 12s 9
mph
1018.9mb 54f 55f
7:00 4.5ft 11s 7 9 mph 1019.2mb 54f 55f
6:00 4.5ft 10s 4 7 mph 1019.2mb 54f 56f
5:00 4.5ft 10s 7
mph
1019.2mb 55f 57f
4:00 5ft 10s 7
mph
1019.4mb 55f 58f
3:00 4.5ft 10s 7
mph
1019.6mb 55f 57f
2:00 5ft 10s 4
mph
1019.8mb 56f 56f
1:00 5ft 10s 4
mph
1019.9mb 55f 56f
12:00 5ft 8s 4 7 mph 1019.9mb 55f 55f
11:00 5ft 9s 4
mph
1019.8mb 54f 55f
10:00 4.5ft 10s 4 7 mph 1019.7mb 54f 55f
9:00 4.5ft 10s 4 7 mph 1019.5mb 53f 55f
8:00 4ft 9s 4 7 mph 1019.5mb 53f 54f
7:00 3.5ft 9s 4 7 mph 1019.3mb 53f 54f
6:00 3.5ft 10s 7 9 mph 1019.3mb 54f 53f
5:00 3.5ft 10s 7 9 mph 1019.1mb 53f 54f
4:00 3.5ft 9s 4 7 mph 1019.2mb 53f 54f
3:00 3.5ft 10s 4 7 mph 1019.1mb 53f 54f
2:00 3.5ft 8s 4 7 mph 1019.1mb 53f 54f
1:00 3.5ft 7s 4
mph
1019.3mb 53f 54f
12:00 3.5ft 8s 2
mph
1019.2mb 54f 54f
mié 09/28 11:00 3.5ft 8s 2 4 mph 1019.5mb 53f 54f
10:00 3.5ft 8s  -  mph 1019.7mb 54f 55f
9:00 3.5ft 8s  -  2 mph 1019.7mb 54f 54f
8:00 3ft 8s 2
mph
1019.8mb 54f 54f
7:00 3ft 8s 2 4 mph 1020.2mb 54f 54f
6:00 3ft 8s 7
mph
1020.5mb 54f 55f
5:00 3ft 8s 7 9 mph 1020.7mb 54f 55f
4:00 3ft 15s 4 7 mph 1021.1mb 54f 55f
3:00 3.5ft 8s 9 11 mph 1021.2mb 54f 55f
2:00 3.5ft 8s 9 11 mph 1021.3mb 54f 55f
1:00 3.5ft 9s 9 11 mph 1021.6mb 54f 55f
12:00 3.5ft 8s 11
mph
1021.9mb 53f 54f
11:00 3.5ft 8s 11 13 mph 1022mb 53f 54f
10:00 3.5ft 9s 13 16 mph 1022.1mb 53f 54f
9:00 4ft 7s 16 18 mph 1022.1mb 53f 54f
8:00 4ft 15s 16 18 mph 1022.2mb 53f 54f
7:00 4.5ft 8s 16 20 mph 1022.3mb 53f 53f
6:00 4.5ft 9s 18 22 mph 1022.4mb 54f 54f
5:00 4.5ft 9s 18 20 mph 1022.3mb 53f 54f
4:00 4.5ft 9s 20 22 mph 1022.6mb 53f 54f
3:00 4.5ft 10s 18 22 mph 1023mb 54f 54f
2:00 5ft 10s 18 22 mph 1023.2mb 54f 54f
1:00 4.5ft 10s 18 22 mph 1023.6mb 54f 54f
12:00 5ft 8s 20 22 mph 1023.8mb 54f 54f
mar 09/27 11:00 5ft 9s 20 22 mph 1023.8mb 54f 55f
10:00 5ft 8s 20 25 mph 1024mb 54f 55f
9:00 4.5ft 9s 20 25 mph 1024.4mb 54f 55f
8:00 5ft 9s 20 25 mph 1024.4mb 55f 56f
7:00 5ft 8s 22 27 mph 1024.4mb 55f 56f
6:00 5ft 10s 20 22 mph 1024.8mb 55f 56f
5:00 5ft 10s 20 25 mph 1025mb 55f 56f
4:00 5.5ft 10s 18 22 mph 1025.5mb 56f 57f
3:00 5.5ft 10s 18 20 mph 1026.1mb 55f 56f